Time;durP1;ratioP1;P1;durP2;ratioP2;P2;SDS_P1;SDS_P2;PMS_P1;PMS_P2;Temp;Humidity;BMP_temperature;BMP_pressure;BME280_temperature;BME280_humidity;BME280_pressure;Samples;Min_cycle;Max_cycle;Signal;HPM_P1;HPM_P2
2024/04/19 00:01:47;;;;;;;14.33;2.27;;;8.80;1.00;;;;;;5458376;26;20259;-82
2024/04/19 00:04:13;;;;;;;15.55;3.08;;;8.80;1.00;;;;;;5426181;26;20209;-82
2024/04/19 00:06:38;;;;;;;18.80;3.20;;;8.80;1.00;;;;;;5426321;26;20302;-82
2024/04/19 00:09:04;;;;;;;17.77;3.47;;;8.80;1.20;;;;;;5426009;26;20233;-82
2024/04/19 00:11:30;;;;;;;17.73;3.37;;;8.70;7.70;;;;;;5458229;26;20225;-82
2024/04/19 00:13:55;;;;;;;17.47;3.53;;;8.80;5.60;;;;;;5458171;26;20206;-82
2024/04/19 00:16:22;;;;;;;15.20;3.60;;;8.80;6.30;;;;;;5426096;26;20231;-82
2024/04/19 00:18:48;;;;;;;16.45;3.90;;;8.70;1.00;;;;;;5458445;26;20217;-82
2024/04/19 00:21:13;;;;;;;15.67;3.90;;;8.70;7.50;;;;;;5457877;26;20316;-82
2024/04/19 00:23:39;;;;;;;15.90;3.47;;;8.70;11.90;;;;;;5458081;26;20205;-82
2024/04/19 00:26:04;;;;;;;16.50;3.97;;;8.70;12.70;;;;;;5426261;26;20662;-82
2024/04/19 00:28:30;;;;;;;16.50;3.77;;;8.70;17.60;;;;;;5426482;26;20228;-82
2024/04/19 00:30:56;;;;;;;15.73;3.70;;;8.70;10.60;;;;;;5458000;26;20263;-82
2024/04/19 00:33:22;;;;;;;16.70;4.20;;;8.70;9.90;;;;;;5426138;26;20209;-82
2024/04/19 00:35:47;;;;;;;16.50;3.97;;;8.60;7.40;;;;;;5425954;26;20217;-83
2024/04/19 00:38:13;;;;;;;15.90;4.10;;;8.70;8.10;;;;;;5457934;26;20424;-82
2024/04/19 00:40:39;;;;;;;16.43;3.80;;;8.70;8.10;;;;;;5457661;26;20218;-82
2024/04/19 00:43:04;;;;;;;18.80;3.87;;;8.60;3.80;;;;;;5457506;26;20555;-83
2024/04/19 00:45:40;;;;;;;17.50;4.20;;;8.60;7.00;;;;;;5457775;26;20253;-82
2024/04/19 00:48:12;;;;;;;14.70;3.70;;;8.60;5.00;;;;;;5425991;26;20686;-82
2024/04/19 00:50:39;;;;;;;16.98;4.28;;;8.60;3.00;;;;;;5456470;26;20595;-82
2024/04/19 00:53:05;;;;;;;18.90;3.75;;;8.50;6.40;;;;;;5457737;26;20208;-82
2024/04/19 00:55:32;;;;;;;16.30;3.95;;;8.50;8.20;;;;;;5425668;26;20205;-82
2024/04/19 00:57:59;;;;;;;16.00;4.10;;;8.50;10.50;;;;;;5457131;26;20224;-82
2024/04/19 01:00:25;;;;;;;16.15;3.38;;;8.60;17.50;;;;;;5457237;26;20219;-82
2024/04/19 01:02:55;;;;;;;19.50;3.78;;;8.60;16.40;;;;;;5457207;26;20319;-82
2024/04/19 01:05:24;;;;;;;15.38;3.40;;;8.50;19.60;;;;;;5457095;26;20334;-82
2024/04/19 01:07:50;;;;;;;15.77;4.05;;;8.70;19.70;;;;;;5425712;26;20251;-82
2024/04/19 01:10:17;;;;;;;20.95;4.45;;;8.70;18.90;;;;;;5425722;26;20240;-82
2024/04/19 01:12:42;;;;;;;20.52;4.05;;;8.70;22.60;;;;;;5457437;26;20252;-82
2024/04/19 01:15:20;;;;;;;15.60;3.83;;;8.80;21.70;;;;;;5425524;26;20554;-82
2024/04/19 01:17:46;;;;;;;18.77;5.35;;;8.80;23.10;;;;;;5425526;26;20233;-82
2024/04/19 01:20:12;;;;;;;21.90;5.57;;;8.80;19.60;;;;;;5425286;26;20229;-82
2024/04/19 01:22:39;;;;;;;18.70;4.20;;;8.80;18.20;;;;;;5457252;26;20530;-82
2024/04/19 01:25:07;;;;;;;17.42;4.57;;;8.90;15.30;;;;;;5457315;26;20221;-82
2024/04/19 01:27:32;;;;;;;18.50;4.97;;;9.00;1.00;;;;;;5457412;26;20255;-82
2024/04/19 01:29:58;;;;;;;15.63;4.43;;;9.10;7.70;;;;;;5425779;26;20706;-84
2024/04/19 01:32:24;;;;;;;20.57;4.23;;;9.10;9.50;;;;;;5425366;26;20676;-83
2024/04/19 01:34:49;;;;;;;17.20;4.03;;;9.00;21.60;;;;;;5425343;26;20217;-84
2024/04/19 01:37:15;;;;;;;18.37;3.97;;;8.90;29.30;;;;;;5458058;26;20208;-84
2024/04/19 01:39:42;;;;;;;16.13;3.30;;;8.80;29.10;;;;;;5457359;26;20252;-83
2024/04/19 01:42:07;;;;;;;16.10;4.13;;;8.70;55.80;;;;;;5457122;26;20678;-84
2024/04/19 01:44:33;;;;;;;15.70;4.57;;;8.60;57.90;;;;;;5457227;26;20260;-86
2024/04/19 01:46:59;;;;;;;15.77;4.50;;;8.50;61.10;;;;;;5426286;26;20554;-84
2024/04/19 01:49:24;;;;;;;16.70;4.33;;;8.50;61.50;;;;;;5458240;26;20206;-86
2024/04/19 01:51:50;;;;;;;18.60;5.30;;;8.50;67.80;;;;;;5426113;26;20226;-85
2024/04/19 01:54:16;;;;;;;16.77;4.10;;;8.50;71.50;;;;;;5425800;26;20213;-84
2024/04/19 01:56:42;;;;;;;16.70;4.37;;;8.50;80.30;;;;;;5425901;26;20619;-84
2024/04/19 01:59:08;;;;;;;19.80;5.10;;;8.50;80.90;;;;;;5457925;26;20596;-85
2024/04/19 02:01:33;;;;;;;18.60;5.60;;;8.50;86.90;;;;;;5457257;26;20218;-87
2024/04/19 02:03:59;;;;;;;16.87;5.30;;;8.50;84.20;;;;;;5426074;26;20444;-86
2024/04/19 02:06:25;;;;;;;17.40;5.20;;;8.50;91.40;;;;;;5457773;26;20208;-86
2024/04/19 02:08:50;;;;;;;17.00;5.43;;;8.40;90.10;;;;;;5425906;26;20217;-84
2024/04/19 02:11:16;;;;;;;18.10;4.83;;;8.40;85.10;;;;;;5396017;26;20259;-85
2024/04/19 02:13:42;;;;;;;16.50;3.97;;;8.30;60.00;;;;;;5425544;26;20304;-84
2024/04/19 02:16:07;;;;;;;16.83;4.10;;;8.30;57.20;;;;;;5425143;26;20247;-84
2024/04/19 02:18:33;;;;;;;16.67;4.47;;;8.30;62.90;;;;;;5456782;26;20208;-85
2024/04/19 02:20:59;;;;;;;15.60;3.50;;;8.20;79.80;;;;;;5456508;26;20233;-85
2024/04/19 02:23:36;;;;;;;17.57;3.47;;;8.20;60.10;;;;;;5425159;26;20221;-87
2024/04/19 02:26:08;;;;;;;15.45;3.55;;;8.00;70.40;;;;;;5457350;26;20232;-84
2024/04/19 02:31:19;;;;;;;19.80;4.85;;;8.00;92.80;;;;;;5460242;26;20247;-84
2024/04/19 02:33:45;;;;;;;16.77;5.13;;;7.90;96.30;;;;;;5427635;26;20570;-85
2024/04/19 02:36:11;;;;;;;15.13;3.70;;;7.80;99.90;;;;;;5460209;26;20210;-85
2024/04/19 02:38:37;;;;;;;17.17;4.60;;;7.80;99.90;;;;;;5429283;26;20221;-84
2024/04/19 02:41:03;;;;;;;17.27;4.40;;;7.70;99.90;;;;;;5430183;26;20574;-84
2024/04/19 02:43:29;;;;;;;15.90;3.83;;;7.70;99.90;;;;;;5428898;26;20217;-85
2024/04/19 02:45:55;;;;;;;20.43;5.70;;;7.80;99.90;;;;;;5460284;26;20265;-84
2024/04/19 02:48:23;;;;;;;19.27;6.80;;;7.70;99.90;;;;;;5430112;26;20443;-84
2024/04/19 02:50:49;;;;;;;20.92;8.27;;;7.70;99.90;;;;;;5460846;26;20264;-84
2024/04/19 02:53:18;;;;;;;23.20;10.00;;;7.80;99.90;;;;;;5430277;26;20217;-85
2024/04/19 02:55:44;;;;;;;19.33;7.38;;;7.70;99.90;;;;;;5460780;26;20213;-85
2024/04/19 02:58:10;;;;;;;18.30;6.40;;;7.60;99.90;;;;;;5460375;26;20619;-84
2024/04/19 03:00:38;;;;;;;18.27;4.67;;;7.60;99.90;;;;;;5461138;26;20307;-84
2024/04/19 03:03:04;;;;;;;18.40;5.05;;;7.60;99.90;;;;;;5460170;26;20260;-84
2024/04/19 03:05:29;;;;;;;18.37;5.40;;;7.60;99.90;;;;;;5460812;26;20209;-85
2024/04/19 03:07:55;;;;;;;17.53;4.80;;;7.70;99.90;;;;;;5460431;26;20286;-84
2024/04/19 03:10:21;;;;;;;16.50;4.10;;;7.70;99.90;;;;;;5462917;26;20233;-85
2024/04/19 03:12:46;;;;;;;17.93;5.13;;;7.70;99.90;;;;;;5464763;26;20205;-84
2024/04/19 03:15:12;;;;;;;16.13;4.07;;;7.70;99.90;;;;;;5466854;26;20213;-85
2024/04/19 03:17:37;;;;;;;15.83;3.80;;;7.60;99.90;;;;;;5467019;26;20325;-85
2024/04/19 03:20:04;;;;;;;17.03;4.23;;;7.60;99.90;;;;;;5466494;26;20217;-85
2024/04/19 03:22:30;;;;;;;16.88;4.35;;;7.60;99.90;;;;;;5434471;26;20241;-85
2024/04/19 03:24:55;;;;;;;17.30;3.40;;;7.60;99.90;;;;;;5435297;26;20690;-85
2024/04/19 03:27:21;;;;;;;15.30;3.20;;;7.50;99.90;;;;;;5465772;26;20233;-85
2024/04/19 03:29:53;;;;;;;17.47;3.70;;;7.50;99.90;;;;;;5465771;26;20216;-85
2024/04/19 03:32:18;;;;;;;16.05;3.95;;;7.50;99.90;;;;;;5462669;26;20252;-85
2024/04/19 03:34:44;;;;;;;19.70;5.70;;;7.50;99.90;;;;;;5431754;26;20221;-86
2024/04/19 03:37:09;;;;;;;15.50;3.60;;;7.60;99.90;;;;;;5464995;26;20209;-85
2024/04/19 03:39:35;;;;;;;16.00;4.23;;;7.50;99.90;;;;;;5433931;26;20240;-86
2024/04/19 03:42:02;;;;;;;19.90;4.03;;;7.50;99.90;;;;;;5466430;26;20206;-87
2024/04/19 03:47:12;;;;;;;16.52;4.95;;;7.50;99.90;;;;;;5466491;26;20684;-86
2024/04/19 03:49:38;;;;;;;18.17;5.07;;;7.40;99.90;;;;;;5466043;26;20207;-85
2024/04/19 03:52:04;;;;;;;15.43;3.50;;;7.40;99.90;;;;;;5436466;26;20220;-86
2024/04/19 03:54:29;;;;;;;18.67;4.80;;;7.40;99.90;;;;;;5467252;26;20240;-85
2024/04/19 03:56:55;;;;;;;15.67;3.57;;;7.40;99.90;;;;;;5467999;26;20252;-86
2024/04/19 03:59:20;;;;;;;16.60;3.57;;;7.40;99.90;;;;;;5466183;26;20209;-85
2024/04/19 04:01:49;;;;;;;17.00;4.00;;;7.30;99.90;;;;;;5465648;26;20249;-86
2024/04/19 04:04:15;;;;;;;16.27;3.97;;;7.40;99.90;;;;;;5466703;26;20256;-86
2024/04/19 04:06:41;;;;;;;15.90;3.10;;;7.50;99.90;;;;;;5466813;26;20206;-86
2024/04/19 04:09:06;;;;;;;14.10;2.23;;;7.50;99.90;;;;;;5465232;26;20688;-85
2024/04/19 04:11:32;;;;;;;13.80;2.30;;;7.40;99.90;;;;;;5465410;26;20287;-85
2024/04/19 04:13:58;;;;;;;14.80;2.63;;;7.50;99.90;;;;;;5464008;26;20544;-86
2024/04/19 04:16:23;;;;;;;14.33;1.93;;;7.40;99.90;;;;;;5433408;26;20214;-86
2024/04/19 04:18:49;;;;;;;15.27;2.03;;;7.40;99.90;;;;;;5464367;26;20210;-86
2024/04/19 04:21:15;;;;;;;13.80;1.97;;;7.40;99.90;;;;;;5465346;26;20706;-86
2024/04/19 04:23:43;;;;;;;14.30;2.10;;;7.20;99.90;;;;;;5464039;26;20239;-86
2024/04/19 04:26:09;;;;;;;14.48;2.03;;;7.20;99.90;;;;;;5537507;21;20357;-84
2024/04/19 04:28:37;;;;;;;12.87;1.43;;;7.20;99.90;;;;;;5458327;26;20215;-84
2024/04/19 04:31:03;;;;;;;14.27;2.00;;;7.20;99.90;;;;;;5427298;26;20339;-83
2024/04/19 04:33:29;;;;;;;14.23;1.90;;;7.20;99.90;;;;;;5459221;26;20205;-83
2024/04/19 04:35:54;;;;;;;14.20;1.77;;;7.20;99.90;;;;;;5458288;26;20247;-84
2024/04/19 04:38:20;;;;;;;13.57;1.80;;;7.20;99.90;;;;;;5459209;26;20207;-83
2024/04/19 04:40:45;;;;;;;13.30;1.77;;;7.20;99.90;;;;;;5458789;26;20305;-84
2024/04/19 04:43:14;;;;;;;15.00;1.60;;;7.20;99.90;;;;;;5426581;26;20205;-84
2024/04/19 04:45:39;;;;;;;13.52;1.65;;;7.10;99.90;;;;;;5458920;26;20543;-84
2024/04/19 04:48:06;;;;;;;14.53;2.47;;;7.10;99.90;;;;;;5458906;26;20253;-84
2024/04/19 04:50:31;;;;;;;13.73;1.95;;;7.10;99.90;;;;;;5458242;26;20256;-84
2024/04/19 04:53:01;;;;;;;16.53;2.33;;;7.20;99.90;;;;;;5458256;26;20206;-84
2024/04/19 04:55:28;;;;;;;13.82;1.42;;;7.20;99.90;;;;;;5458160;26;20257;-84
2024/04/19 04:57:54;;;;;;;13.63;1.90;;;7.10;99.90;;;;;;5426726;26;20682;-83
2024/04/19 05:00:20;;;;;;;13.40;1.73;;;7.00;99.90;;;;;;5458647;26;20302;-84
2024/04/19 05:02:46;;;;;;;14.27;2.07;;;7.00;99.90;;;;;;5426982;26;20209;-84
2024/04/19 05:05:11;;;;;;;13.75;1.65;;;7.00;99.90;;;;;;5458462;26;20248;-84
2024/04/19 05:07:37;;;;;;;13.20;1.77;;;7.10;99.90;;;;;;5426363;26;20210;-84
2024/04/19 05:10:03;;;;;;;13.57;1.27;;;6.90;99.90;;;;;;5426876;26;20255;-84
2024/04/19 05:12:29;;;;;;;12.83;1.40;;;7.00;99.90;;;;;;5457892;26;20211;-84
2024/04/19 05:14:54;;;;;;;15.83;2.40;;;7.00;99.90;;;;;;5457810;26;20429;-83
2024/04/19 05:17:20;;;;;;;13.03;1.67;;;7.00;99.90;;;;;;5425992;26;20214;-84
2024/04/19 05:19:45;;;;;;;14.37;1.77;;;6.90;99.90;;;;;;5457477;26;20208;-83
2024/04/19 05:22:11;;;;;;;15.10;2.37;;;6.90;99.90;;;;;;5457609;26;20584;-83
2024/04/19 05:24:37;;;;;;;15.20;2.90;;;6.90;99.90;;;;;;5458181;26;20204;-83
2024/04/19 05:27:03;;;;;;;17.83;3.93;;;6.90;99.90;;;;;;5458014;26;20223;-83
2024/04/19 05:29:28;;;;;;;17.33;3.10;;;6.80;99.90;;;;;;5426298;26;20214;-83
2024/04/19 05:31:54;;;;;;;17.30;3.90;;;6.80;99.90;;;;;;5458103;26;20243;-83
2024/04/19 05:34:20;;;;;;;19.23;3.23;;;6.70;99.90;;;;;;5457845;26;20565;-82
2024/04/19 05:36:46;;;;;;;16.13;2.85;;;6.80;99.90;;;;;;5457678;26;20431;-82
2024/04/19 05:39:12;;;;;;;14.10;2.10;;;6.70;99.90;;;;;;5426406;26;20213;-81
2024/04/19 05:41:40;;;;;;;13.60;2.00;;;6.80;99.90;;;;;;5457606;26;20346;-83
2024/04/19 05:44:06;;;;;;;14.82;2.08;;;6.80;99.90;;;;;;5457049;26;20861;-83
2024/04/19 05:46:32;;;;;;;17.37;1.93;;;6.80;99.90;;;;;;5457607;26;20253;-82
2024/04/19 05:48:58;;;;;;;14.40;1.90;;;6.80;99.90;;;;;;5425522;26;20258;-83
2024/04/19 05:51:23;;;;;;;14.23;2.00;;;6.70;99.90;;;;;;5455845;26;20215;-82
2024/04/19 05:53:50;;;;;;;15.33;1.70;;;6.80;99.90;;;;;;5455420;26;20240;-81
2024/04/19 05:56:15;;;;;;;12.80;1.20;;;6.80;99.90;;;;;;5422756;26;20209;-82
2024/04/19 05:58:44;;;;;;;12.93;1.10;;;6.80;99.90;;;;;;5454123;26;20674;-81
2024/04/19 06:01:10;;;;;;;12.90;1.30;;;6.90;99.90;;;;;;5454150;26;20247;-81
2024/04/19 06:03:36;;;;;;;12.97;1.30;;;6.70;99.90;;;;;;5454839;26;20205;-82
2024/04/19 06:06:01;;;;;;;12.87;1.17;;;6.80;99.90;;;;;;5422486;26;20240;-82
2024/04/19 06:08:27;;;;;;;22.13;1.50;;;6.80;99.90;;;;;;5422267;26;20239;-82
2024/04/19 06:10:53;;;;;;;12.60;1.10;;;6.80;99.90;;;;;;5454347;26;20572;-82
2024/04/19 06:13:18;;;;;;;12.20;1.00;;;6.80;99.90;;;;;;5422749;26;20313;-82
2024/04/19 06:15:45;;;;;;;13.20;1.40;;;6.90;99.90;;;;;;5422903;26;20687;-82
2024/04/19 06:18:10;;;;;;;16.73;1.77;;;7.00;99.90;;;;;;5422790;26;20242;-81
2024/04/19 06:20:38;;;;;;;13.27;1.27;;;7.10;99.90;;;;;;5454481;26;20597;-81
2024/04/19 06:23:04;;;;;;;14.90;1.50;;;7.10;99.90;;;;;;5454180;26;20251;-81
2024/04/19 06:25:30;;;;;;;13.60;2.00;;;7.00;99.90;;;;;;5453863;26;20538;-81
2024/04/19 06:27:55;;;;;;;13.10;1.53;;;7.10;99.90;;;;;;5454273;26;20240;-81
2024/04/19 06:30:23;;;;;;;14.50;1.50;;;7.10;99.90;;;;;;5422167;26;20300;-82
2024/04/19 06:32:49;;;;;;;16.95;2.90;;;7.10;99.90;;;;;;5453500;26;20241;-81
2024/04/19 06:35:18;;;;;;;13.87;2.20;;;7.10;99.90;;;;;;5453873;26;20209;-81
2024/04/19 06:37:44;;;;;;;14.18;1.75;;;7.20;99.90;;;;;;5453939;26;20257;-82
2024/04/19 06:40:10;;;;;;;18.10;3.20;;;7.30;99.90;;;;;;5421772;26;20326;-82
2024/04/19 06:42:35;;;;;;;14.47;2.10;;;7.40;99.90;;;;;;5453840;26;20180;-82
2024/04/19 06:45:01;;;;;;;14.17;1.90;;;7.40;99.90;;;;;;5421853;26;20268;-82
2024/04/19 06:47:27;;;;;;;13.67;1.97;;;7.30;99.90;;;;;;5423031;26;20654;-81
2024/04/19 06:49:52;;;;;;;14.47;2.63;;;7.50;99.90;;;;;;5457224;26;20211;-81
2024/04/19 06:52:18;;;;;;;13.23;1.70;;;7.50;99.90;;;;;;5425302;26;20209;-82
2024/04/19 06:54:44;;;;;;;14.60;1.30;;;7.60;99.90;;;;;;5425434;26;20635;-83
2024/04/19 06:57:09;;;;;;;12.47;0.90;;;7.50;99.90;;;;;;5425454;26;20247;-83
2024/04/19 06:59:35;;;;;;;12.10;1.03;;;7.50;99.90;;;;;;5457239;26;20253;-82
2024/04/19 07:02:01;;;;;;;12.17;0.87;;;7.60;99.90;;;;;;5457404;26;20593;-82
2024/04/19 07:04:26;;;;;;;11.97;0.80;;;7.70;99.90;;;;;;5425190;26;20210;-82
2024/04/19 07:06:52;;;;;;;12.23;1.00;;;7.80;99.90;;;;;;5457064;26;20247;-83
2024/04/19 07:09:17;;;;;;;12.03;0.80;;;7.90;99.90;;;;;;5457412;26;20205;-82
2024/04/19 07:11:45;;;;;;;12.00;0.90;;;7.90;99.90;;;;;;5426980;26;20226;-83
2024/04/19 07:14:10;;;;;;;11.95;0.80;;;7.90;99.90;;;;;;5427988;26;20236;-83
2024/04/19 07:16:36;;;;;;;12.27;0.90;;;8.00;99.90;;;;;;5427569;26;20229;-82
2024/04/19 07:19:02;;;;;;;11.93;0.90;;;8.00;99.90;;;;;;5427970;26;20214;-83
2024/04/19 07:21:27;;;;;;;12.10;0.90;;;8.10;99.90;;;;;;5459953;26;20506;-83
2024/04/19 07:23:53;;;;;;;12.10;1.10;;;8.10;99.90;;;;;;5428297;26;20244;-82
2024/04/19 07:26:19;;;;;;;13.07;1.17;;;8.10;99.90;;;;;;5427921;26;20233;-82
2024/04/19 07:28:44;;;;;;;12.20;0.90;;;8.10;99.90;;;;;;5460316;26;20217;-83
2024/04/19 07:31:11;;;;;;;12.57;1.10;;;8.10;99.90;;;;;;5427906;26;20234;-83
2024/04/19 07:33:36;;;;;;;11.95;0.80;;;8.10;99.90;;;;;;5459687;26;20305;-82
2024/04/19 07:36:02;;;;;;;12.03;1.10;;;8.10;99.90;;;;;;5427953;26;20566;-82
2024/04/19 07:38:28;;;;;;;12.90;1.87;;;8.10;99.90;;;;;;5459500;26;20205;-81
2024/04/19 07:40:54;;;;;;;13.10;1.30;;;8.30;99.90;;;;;;5458996;26;20577;-82
2024/04/19 07:43:19;;;;;;;12.13;1.20;;;8.40;99.90;;;;;;5459721;26;20210;-82
2024/04/19 07:45:45;;;;;;;12.07;0.87;;;8.50;99.90;;;;;;5459490;26;20258;-82
2024/04/19 07:48:11;;;;;;;12.17;1.10;;;8.50;99.90;;;;;;5458981;26;20256;-83
2024/04/19 07:50:36;;;;;;;12.10;1.00;;;8.50;99.90;;;;;;5427708;26;20610;-82
2024/04/19 07:53:02;;;;;;;13.30;1.40;;;8.50;99.90;;;;;;5459500;26;20217;-82
2024/04/19 07:55:28;;;;;;;15.83;1.17;;;8.50;99.90;;;;;;5459193;26;20207;-82
2024/04/19 07:57:53;;;;;;;12.40;1.10;;;8.50;99.90;;;;;;5458868;26;20210;-82
2024/04/19 08:00:21;;;;;;;12.10;0.93;;;8.50;99.90;;;;;;5457974;26;20252;-82
2024/04/19 08:02:47;;;;;;;12.55;0.80;;;8.60;99.90;;;;;;5459222;26;20534;-82
2024/04/19 08:05:13;;;;;;;11.90;0.90;;;8.60;99.90;;;;;;5427338;26;20343;-81
2024/04/19 08:07:39;;;;;;;12.50;1.37;;;8.60;99.90;;;;;;5459225;26;20213;-81
2024/04/19 08:10:06;;;;;;;12.27;1.00;;;8.60;99.90;;;;;;5427480;26;20255;-81
2024/04/19 08:12:31;;;;;;;13.10;1.30;;;8.70;99.90;;;;;;5458953;26;20259;-82
2024/04/19 08:14:57;;;;;;;14.47;1.60;;;8.70;99.90;;;;;;5426813;26;20217;-81
2024/04/19 08:17:23;;;;;;;12.40;1.10;;;8.70;99.90;;;;;;5458677;26;20674;-81
2024/04/19 08:19:49;;;;;;;17.03;1.30;;;8.80;99.90;;;;;;5458987;26;20478;-83
2024/04/19 08:22:15;;;;;;;12.52;1.40;;;8.80;99.90;;;;;;5427767;26;20213;-82
2024/04/19 08:24:41;;;;;;;12.73;1.15;;;8.90;99.90;;;;;;5459083;26;20166;-81
2024/04/19 08:27:07;;;;;;;12.60;1.50;;;9.00;99.90;;;;;;5458614;26;20556;-81
2024/04/19 08:29:33;;;;;;;13.60;1.95;;;9.00;99.90;;;;;;5458565;26;20323;-80
2024/04/19 08:31:59;;;;;;;12.90;1.67;;;9.00;99.90;;;;;;5456481;26;20223;-80
2024/04/19 08:34:25;;;;;;;13.27;1.90;;;9.10;99.90;;;;;;5455990;26;20447;-80
2024/04/19 08:36:50;;;;;;;13.57;2.03;;;9.10;99.90;;;;;;5424089;26;20214;-80
2024/04/19 08:39:16;;;;;;;14.10;1.80;;;9.10;99.90;;;;;;5455813;26;20209;-80
2024/04/19 08:41:47;;;;;;;13.80;1.80;;;9.10;99.90;;;;;;5424307;26;20236;-80
2024/04/19 08:44:13;;;;;;;14.40;2.20;;;9.10;99.90;;;;;;5455925;26;20201;-80
2024/04/19 08:46:40;;;;;;;15.07;2.10;;;9.10;99.90;;;;;;5455566;26;20321;-80
2024/04/19 08:49:08;;;;;;;13.18;1.77;;;9.20;99.90;;;;;;5456001;26;20278;-80
2024/04/19 08:51:37;;;;;;;13.20;1.75;;;9.20;99.90;;;;;;5456163;26;20232;-80
2024/04/19 08:54:04;;;;;;;14.45;2.10;;;9.30;99.90;;;;;;5455901;26;20281;-80
2024/04/19 08:56:31;;;;;;;14.38;2.10;;;9.40;99.90;;;;;;5455939;26;20243;-80
2024/04/19 08:58:58;;;;;;;12.60;1.75;;;9.40;99.90;;;;;;5455439;26;20201;-80
2024/04/19 09:01:24;;;;;;;13.10;2.20;;;9.40;99.90;;;;;;5423955;26;20237;-79
2024/04/19 09:03:49;;;;;;;12.37;1.80;;;9.50;99.90;;;;;;5423683;26;20701;-79
2024/04/19 09:06:16;;;;;;;13.73;2.30;;;9.60;99.90;;;;;;5455247;26;20732;-79
2024/04/19 09:08:41;;;;;;;14.18;2.53;;;9.60;99.90;;;;;;5455311;26;20701;-80
2024/04/19 09:11:17;;;;;;;14.03;2.10;;;9.70;99.90;;;;;;5454532;26;20251;-79
2024/04/19 09:13:44;;;;;;;14.30;2.00;;;9.80;99.90;;;;;;5455052;26;20558;-80
2024/04/19 09:16:11;;;;;;;14.10;2.65;;;9.80;99.90;;;;;;5455076;26;20209;-78
2024/04/19 09:18:37;;;;;;;13.98;2.53;;;9.90;99.90;;;;;;5422874;26;20253;-79
2024/04/19 09:21:03;;;;;;;13.80;2.30;;;9.90;99.90;;;;;;5455158;26;20244;-80
2024/04/19 09:23:32;;;;;;;15.75;3.13;;;10.00;99.90;;;;;;5454957;26;20264;-80
2024/04/19 09:25:59;;;;;;;14.25;2.55;;;10.10;99.90;;;;;;5454492;26;20221;-80
2024/04/19 09:28:28;;;;;;;15.77;3.13;;;10.10;99.90;;;;;;5455040;26;20201;-79
2024/04/19 09:30:54;;;;;;;16.40;3.42;;;10.20;99.90;;;;;;5454561;26;20228;-81
2024/04/19 09:33:21;;;;;;;16.63;3.40;;;10.20;99.90;;;;;;5422967;26;20820;-80
2024/04/19 09:35:49;;;;;;;15.88;2.95;;;10.20;99.90;;;;;;5454787;26;20314;-80
2024/04/19 09:38:15;;;;;;;14.00;2.95;;;10.10;99.90;;;;;;5423141;26;20322;-79
2024/04/19 09:40:45;;;;;;;16.40;3.80;;;10.20;99.90;;;;;;5454821;26;20729;-79
2024/04/19 09:43:15;;;;;;;15.52;2.72;;;10.30;99.90;;;;;;5454721;26;20317;-80
2024/04/19 09:45:43;;;;;;;15.25;3.35;;;10.20;99.90;;;;;;5454912;26;20251;-81
2024/04/19 09:48:14;;;;;;;15.50;2.30;;;10.30;99.90;;;;;;5457141;26;20209;-81
2024/04/19 09:50:46;;;;;;;14.60;2.60;;;10.40;99.90;;;;;;5457676;26;20601;-82
2024/04/19 09:53:33;;;;;;;13.93;2.47;;;10.50;99.90;;;;;;5457427;26;20660;-82
2024/04/19 09:56:37;;;;;;;13.95;2.67;;;10.60;99.90;;;;;;5457075;26;20197;-81
2024/04/19 09:59:05;;;;;;;15.07;2.58;;;10.70;99.90;;;;;;5425390;26;20221;-82
2024/04/19 10:01:31;;;;;;;12.85;2.20;;;10.70;99.90;;;;;;5457489;26;20244;-82
2024/04/19 10:03:58;;;;;;;13.87;2.70;;;10.80;99.90;;;;;;5457183;26;20209;-81
2024/04/19 10:06:26;;;;;;;13.90;2.40;;;11.00;99.90;;;;;;5425411;26;20493;-81
2024/04/19 10:08:54;;;;;;;15.65;3.55;;;11.10;99.90;;;;;;5457747;26;20225;-82
2024/04/19 10:11:20;;;;;;;14.38;2.92;;;11.20;99.90;;;;;;5456775;26;20221;-82
2024/04/19 10:13:45;;;;;;;16.40;3.50;;;11.10;99.90;;;;;;5456857;26;20236;-82
2024/04/19 10:16:11;;;;;;;15.97;3.93;;;11.10;99.90;;;;;;5457127;26;20482;-82
2024/04/19 10:18:37;;;;;;;20.27;3.83;;;11.20;99.90;;;;;;5425420;26;20264;-82
2024/04/19 10:21:03;;;;;;;15.57;3.33;;;11.40;99.90;;;;;;5425749;26;20233;-82
2024/04/19 10:23:29;;;;;;;14.88;2.90;;;11.50;99.90;;;;;;5459890;26;20740;-82
2024/04/19 10:28:23;;;;;;;15.60;3.20;;;11.50;99.90;;;;;;5388573;26;20207;-86
2024/04/19 10:30:48;;;;;;;16.27;2.63;;;11.40;99.90;;;;;;5388940;26;20296;-86
2024/04/19 10:33:15;;;;;;;17.33;3.43;;;11.40;99.90;;;;;;5388776;26;20207;-86
2024/04/19 10:35:44;;;;;;;14.65;3.10;;;11.30;99.90;;;;;;5390284;26;20211;-86
2024/04/19 10:38:12;;;;;;;19.33;3.33;;;11.30;99.90;;;;;;5390695;26;20541;-86
2024/04/19 10:40:37;;;;;;;15.05;3.20;;;11.20;99.90;;;;;;5388646;26;20257;-85
2024/04/19 10:43:05;;;;;;;15.47;2.53;;;11.10;99.90;;;;;;5389626;26;20203;-86
2024/04/19 10:45:31;;;;;;;14.55;2.70;;;11.00;99.90;;;;;;5388135;26;20224;-86
2024/04/19 10:48:00;;;;;;;15.88;2.78;;;11.00;99.90;;;;;;5388365;26;20249;-86
2024/04/19 10:50:30;;;;;;;14.48;3.17;;;11.00;99.90;;;;;;5389975;26;20278;-86
2024/04/19 10:52:57;;;;;;;16.60;3.60;;;11.00;99.90;;;;;;5389435;26;20219;-86
2024/04/19 10:55:23;;;;;;;18.90;2.60;;;11.00;99.90;;;;;;5390062;26;20211;-86
2024/04/19 10:57:51;;;;;;;14.60;2.40;;;11.00;99.90;;;;;;5389613;26;20208;-86
2024/04/19 11:00:17;;;;;;;13.75;2.50;;;11.10;99.90;;;;;;5389082;26;20270;-85
2024/04/19 11:02:43;;;;;;;13.53;1.97;;;11.10;99.90;;;;;;5387563;26;20238;-86
2024/04/19 11:05:09;;;;;;;13.00;2.03;;;11.00;99.90;;;;;;5390180;26;20444;-86
2024/04/19 11:07:36;;;;;;;12.70;1.80;;;11.00;99.90;;;;;;5389432;26;20441;-86
2024/04/19 11:10:03;;;;;;;13.05;2.15;;;11.10;99.90;;;;;;5387867;26;20795;-85
2024/04/19 11:12:29;;;;;;;13.32;1.98;;;11.10;99.90;;;;;;5387955;26;20292;-85
2024/04/19 11:14:55;;;;;;;13.07;1.80;;;11.10;99.90;;;;;;5388115;26;20234;-85
2024/04/19 11:17:20;;;;;;;14.83;2.40;;;11.10;99.90;;;;;;5387806;26;20888;-85
2024/04/19 11:19:47;;;;;;;16.33;2.47;;;11.00;99.90;;;;;;5388766;26;20485;-86
2024/04/19 11:22:12;;;;;;;14.90;1.98;;;11.10;99.90;;;;;;5388410;26;20215;-85
2024/04/19 11:24:47;;;;;;;16.43;2.40;;;11.00;99.90;;;;;;5388784;26;20238;-86
2024/04/19 11:27:13;;;;;;;14.05;1.70;;;10.90;99.90;;;;;;5389206;26;20218;-85
2024/04/19 11:29:42;;;;;;;13.32;2.08;;;10.90;99.90;;;;;;5389648;26;20219;-86
2024/04/19 11:32:08;;;;;;;13.73;1.70;;;10.90;99.90;;;;;;5387320;26;20231;-85
2024/04/19 11:34:34;;;;;;;14.97;1.67;;;11.00;99.90;;;;;;5386788;26;20220;-84
2024/04/19 11:37:06;;;;;;;12.63;1.75;;;11.00;99.90;;;;;;5388397;26;20219;-85
2024/04/19 11:39:32;;;;;;;13.23;1.23;;;10.90;99.90;;;;;;5388363;26;20297;-84
2024/04/19 11:41:58;;;;;;;13.27;1.90;;;10.90;99.90;;;;;;5389696;26;20223;-85
2024/04/19 11:44:24;;;;;;;12.87;1.70;;;10.80;99.90;;;;;;5389314;26;20253;-84
2024/04/19 11:46:49;;;;;;;12.97;1.73;;;10.90;99.90;;;;;;5389575;26;20274;-86
2024/04/19 11:49:16;;;;;;;13.50;1.87;;;10.90;99.90;;;;;;5389949;26;20438;-85
2024/04/19 11:51:43;;;;;;;12.90;1.60;;;10.90;99.90;;;;;;5388931;26;20220;-85
2024/04/19 11:54:09;;;;;;;15.20;1.73;;;10.90;99.90;;;;;;5389057;26;20725;-84
2024/04/19 11:56:35;;;;;;;17.03;2.10;;;10.80;99.90;;;;;;5386946;26;20211;-85
2024/04/19 11:59:03;;;;;;;16.87;2.23;;;10.70;99.90;;;;;;5389374;26;20219;-86
2024/04/19 12:01:29;;;;;;;13.60;1.98;;;10.70;99.90;;;;;;5388970;26;20266;-86
2024/04/19 12:03:55;;;;;;;12.63;1.60;;;10.70;99.90;;;;;;5389280;26;20211;-84
2024/04/19 12:06:21;;;;;;;13.10;1.63;;;10.60;99.90;;;;;;5388172;26;20257;-85
2024/04/19 12:08:48;;;;;;;14.98;3.30;;;10.60;99.90;;;;;;5387017;26;20481;-86
2024/04/19 12:11:14;;;;;;;14.40;2.10;;;10.60;99.90;;;;;;5389178;26;20227;-86
2024/04/19 12:13:40;;;;;;;13.10;1.13;;;10.60;99.90;;;;;;5389078;26;20258;-87
2024/04/19 12:16:06;;;;;;;13.10;1.30;;;10.40;99.90;;;;;;5386844;26;20285;-87
2024/04/19 12:21:57;;;;;;;13.70;1.27;;;9.90;99.90;;;;;;5383603;26;20227;-86
2024/04/19 12:24:36;;;;;;;12.32;1.10;;;9.70;99.90;;;;;;5387312;26;20219;-87
2024/04/19 12:27:04;;;;;;;12.82;1.00;;;9.80;99.90;;;;;;5388409;26;20231;-85
2024/04/19 12:29:30;;;;;;;12.05;0.95;;;9.90;99.90;;;;;;5385691;26;20219;-87
2024/04/19 12:31:56;;;;;;;12.18;0.77;;;10.00;99.90;;;;;;5386053;26;20266;-87
2024/04/19 12:34:22;;;;;;;12.80;1.13;;;10.10;99.90;;;;;;5385970;26;20224;-86
2024/04/19 12:36:48;;;;;;;12.97;1.20;;;10.00;99.90;;;;;;5389012;26;20238;-87
2024/04/19 12:39:16;;;;;;;12.60;1.27;;;10.10;99.90;;;;;;5386052;26;20215;-86
2024/04/19 12:41:42;;;;;;;13.95;1.23;;;10.20;99.90;;;;;;5388436;26;20509;-85
2024/04/19 12:44:08;;;;;;;13.32;1.20;;;10.20;99.90;;;;;;5388254;26;20211;-86
2024/04/19 12:46:34;;;;;;;13.37;1.10;;;10.10;99.90;;;;;;5385532;26;20219;-86
2024/04/19 12:49:05;;;;;;;12.20;1.20;;;10.10;99.90;;;;;;5388641;26;21008;-86
2024/04/19 12:51:31;;;;;;;15.45;1.45;;;10.30;99.90;;;;;;5388248;26;20250;-85
2024/04/19 12:53:57;;;;;;;12.07;0.93;;;10.20;99.90;;;;;;5386570;26;20591;-87